Calhoun, GA (30701)

1:30 AM EST on January 26, 2015 (GMT -0500)
The Villages of Calhoun | Change Station
CLOSE
Current Station
Personal Weather Station
Location: Calhoun, GA
Elevation: 676 ft
Nearby Weather Stations
Active Advisory: Winter Weather Advisory

Elev 676 ft 34.50 °N, 84.93 °W | Updated 26 seconds ago

Overcast
Overcast
45.9 °F
Feels Like 46 °F
N
0.0
Wind Variable Wind from SW
Gusts 2.0 mph

Today
High -- | Low -- °F
--% Chance of Precip.
Yesterday
High -- | Low -- °F
Precip. -- in
7:41 AM 6:03 PM
Waxing Crescent, 40% visible
Pressure 29.72 in
Visibility 10.0 miles
Clouds Scattered Clouds 3200 ft
Overcast 4600 ft
Windchill 46 °F
Dew Point 42 °F
Humidity 88%
Rainfall 0.00 in
Snow Depth Not available.
UV 0 out of 12
Pollen .70 out of 12
Air Quality Not available.
Flu Activity Not available.
METAR KDNN 260615Z AUTO 00000KT 10SM SCT032 OVC046 07/06 A2972 RMK AO2

More Conditions Fewer Conditions

Pressure 29.72 in
Visibility 10.0 miles
Clouds Scattered Clouds 3200 ft
Overcast 4600 ft
Windchill 46 °F
Dew Point 42 °F
Humidity 88%
Rainfall 0.00 in
Snow Depth Not available.
UV 0 out of 12
Pollen .70 out of 12
Air Quality Not available.
Flu Activity Not available.
METAR KDNN 260615Z AUTO 00000KT 10SM SCT032 OVC046 07/06 A2972 RMK AO2

More Conditions Fewer Conditions

10-Day Weather Forecast

Almanac

Astronomy

Jan. 26, 2015 Rise Set
Actual Time
Civil Twilight
Nautical Twilight
Astronomical Twilight
Moon
Length of Visible Light
Length of Day
Tomorrow will be .
, % of the Moon is Illuminated

Today's Extremes

State Highs State Lows

Community

WunderPhotos

Upload Photos

1,790,157 photos uploaded!

WunderBlogs® & News

Nearby

Air Quality

  Air Quality AQ Index Pollutant
Not available.

Snow Depth

Station Depth Elevation

Earthquake Activity

City Distance Mag. Time & Date
Minimum magnitude displayed is 2.5.

Coastal Water Temperatures

Place Temperature

Nearby Weather Stations